Adamsville, Alabama
Current Conditions -  °F | °C
As of 6:53 AM on Monday 22 Dec 2014 (Local Time) from KBHM Reporting Station
Overcast Overcast  
Wind Chill: 10°   Ceiling: 600
Heat Index: 10°   Visibility: 9mi
Dew Point:   Wind: 7mph
Humidity: 89%   Direction: 90°E
Pressure: 29.97"   Gusts: NA
Location:  33.6°N, 86.96°W
Report Text: KBHM 221253Z 09006KT 9SM OVC006 10/08 A2997 RMK AO2 SLP147 T01000083
Loading
Personal Weather Stations






























Interactive Weather Map New forecast layout! Learn more

10-Day Weather Forecast

Advertisements
Track Severe Weather on mobile